Terminal Aerodrome Forecast
Issued by NWS Charleston, WV

Current Version | Previous Version | Graphics & Text | Print | Product List | Glossary On
Versions: 1 2 3 4 5 6 7 8 9 10 11 12 13 14 15 16 17 18 19 20 21 22 23
000
FTUS41 KRLX 250800 AAA
TAFEKN
TAF AMD
KEKN 250816Z 2508/2606 00000KT 2SM BR SCT001
      TEMPO 2510/2512 1/2SM FG BKN001
     FM251300 00000KT 4SM BR SCT001
     FM251400 12003KT P6SM SKC
     FM251600 14005KT P6SM SCT040
     FM252200 12003KT P6SM SKC=

USA.gov is the U.S. government's official web portal to all federal, state and local government web resources and services.